Météo Nord-Pas-de-Calais   La météo au plus près de chez vous

Station météorologique

Observations météo à Etoile (26124)

26124001 145 m Dernier relevé à 13:06
31.4°C
Humidité 34 % Vent 22.7 km/h

Journée consultée

Samedi 5 Septembre 2026

Synthèse de la journée

Périodes de référence en UTC

Température maximale

31.7°C

à 13:00

06h 06h

Température minimale

16.5°C

à 05:18

18h 18h

Rafale maximale

39 km/h

à 13:06

00h 00h

Précipitations

0 mm

Cumul quotidien

06h 06h

Ensoleillement

5h 37 mins

Durée quotidienne

00h 00h

Graphiques de la journée

Heure locale Réduire

Données détaillées

Relevés météo

Pas de 6 minutes Afficher les relevés infra-horaires
Relevés météo détaillés à Etoile pour le Samedi 5 Septembre 2026
Heure Température °C Point de rosée °C Humidité % Vent moyen (raf.), km/h Précipitations mm Température à 10 cm °C Température à 20 cm °C Ensoleillement min Rayonnement global W/m²
13:06 31.4 °C 11.2 °C 29 % 26 km/h (39 km/h) 0 mm0 mm 23.2 °C 23.2 °C 6 min 282.7 W/m²
13:00 31.5 °C 11.3 °C 29 % 23 km/h (35 km/h) 0 mm0 mm 23.2 °C 23.2 °C 6 min 281.5 W/m²
12:54 31.6 °C 11.9 °C 30 % 23 km/h (35 km/h) 0 mm0 mm 23.2 °C 23.2 °C 6 min 280.8 W/m²
12:48 31.3 °C 12.1 °C 31 % 23 km/h (38 km/h) 0 mm0 mm 23.2 °C 23.2 °C 6 min 280.7 W/m²
12:42 31.3 °C 13.1 °C 33 % 23 km/h (36 km/h) 0 mm0 mm 23.2 °C 23.3 °C 6 min 279.3 W/m²
12:36 30.9 °C 12.3 °C 32 % 25 km/h (37 km/h) 0 mm0 mm 23.1 °C 23.3 °C 6 min 278.6 W/m²
12:30 30.9 °C 11.8 °C 31 % 24 km/h (37 km/h) 0 mm0 mm 23.1 °C 23.3 °C 6 min 277 W/m²
12:24 30.7 °C 12.1 °C 32 % 24 km/h (36 km/h) 0 mm0 mm 23.1 °C 23.3 °C 6 min 275.4 W/m²
12:18 30.6 °C 12.5 °C 33 % 25 km/h (34 km/h) 0 mm0 mm 23.1 °C 23.3 °C 6 min 273.6 W/m²
12:12 30.3 °C 12.2 °C 33 % 25 km/h (34 km/h) 0 mm0 mm 23.1 °C 23.3 °C 6 min 272.2 W/m²
12:06 30.4 °C 12.8 °C 34 % 23 km/h (33 km/h) 0 mm0 mm 23.1 °C 23.3 °C 6 min 261 W/m²
12:00 30.3 °C 13.1 °C 35 % 22 km/h (32 km/h) 0 mm0 mm 23.1 °C 23.3 °C 6 min 265.1 W/m²
11:54 30.3 °C 12.7 °C 34 % 19 km/h (33 km/h) 0 mm0 mm 23.1 °C 23.3 °C 6 min 261 W/m²
11:48 29.8 °C 14 °C 38 % 17 km/h (28 km/h) 0 mm0 mm 23.1 °C 23.3 °C 6 min 257.9 W/m²
11:42 29.3 °C 12.7 °C 36 % 20 km/h (30 km/h) 0 mm0 mm 23.1 °C 23.3 °C 6 min 251.1 W/m²
11:36 29.1 °C 13.3 °C 38 % 21 km/h (32 km/h) 0 mm0 mm 23.1 °C 23.3 °C 6 min 245.2 W/m²
11:30 28.5 °C 14.3 °C 42 % 19 km/h (26 km/h) 0 mm0 mm 23.1 °C 23.3 °C 6 min 239.3 W/m²
11:24 28.5 °C 13.6 °C 40 % 18 km/h (27 km/h) 0 mm0 mm 23.1 °C 23.3 °C 6 min 234.9 W/m²
11:18 28.6 °C 14.1 °C 41 % 19 km/h (27 km/h) 0 mm0 mm 23.1 °C 23.3 °C 6 min 226.3 W/m²
11:12 28.2 °C 13.3 °C 40 % 20 km/h (29 km/h) 0 mm0 mm 23.1 °C 23.3 °C 6 min 214.9 W/m²
11:06 27.9 °C 13 °C 40 % 21 km/h (32 km/h) 0 mm0 mm 23.1 °C 23.3 °C 6 min 214.3 W/m²
11:00 27.9 °C 13 °C 40 % 18 km/h (32 km/h) 0 mm0 mm 23.1 °C 23.3 °C 6 min 191.7 W/m²
10:54 27.5 °C 13.1 °C 41 % 19 km/h (30 km/h) 0 mm0 mm 23.1 °C 23.3 °C 6 min 195.1 W/m²
10:48 27.3 °C 12.9 °C 41 % 21 km/h (30 km/h) 0 mm0 mm 23.1 °C 23.3 °C 6 min 199.8 W/m²
10:42 27.2 °C 13.2 °C 42 % 22 km/h (33 km/h) 0 mm0 mm 23.1 °C 23.4 °C 6 min 211.6 W/m²
10:36 26.6 °C 12.6 °C 42 % 22 km/h (29 km/h) 0 mm0 mm 23.1 °C 23.4 °C 6 min 208.1 W/m²
10:30 26.5 °C 12.9 °C 43 % 19 km/h (29 km/h) 0 mm0 mm 23.1 °C 23.4 °C 6 min 202.4 W/m²
10:24 26.2 °C 13 °C 44 % 19 km/h (31 km/h) 0 mm0 mm 23.1 °C 23.4 °C 6 min 200.7 W/m²
10:18 26.1 °C 12.9 °C 44 % 22 km/h (32 km/h) 0 mm0 mm 23.1 °C 23.4 °C 6 min 196.1 W/m²
10:12 25.6 °C 12.8 °C 45 % 21 km/h (32 km/h) 0 mm0 mm 23.1 °C 23.4 °C 6 min 190.2 W/m²
10:06 25.6 °C 12.1 °C 43 % 17 km/h (32 km/h) 0 mm0 mm 23.1 °C 23.4 °C 6 min 184 W/m²
10:00 25.6 °C 12.4 °C 44 % 15 km/h (24 km/h) 0 mm0 mm 23.1 °C 23.4 °C 6 min 178.4 W/m²
09:54 25.4 °C 12.3 °C 44 % 15 km/h (24 km/h) 0 mm0 mm 23.1 °C 23.4 °C 6 min 171.2 W/m²
09:48 25 °C 11.9 °C 44 % 15 km/h (26 km/h) 0 mm0 mm 23.2 °C 23.4 °C 6 min 165.6 W/m²
09:42 24.6 °C 11.9 °C 45 % 17 km/h (26 km/h) 0 mm0 mm 23.2 °C 23.4 °C 6 min 158.3 W/m²
09:36 24.4 °C 11.7 °C 45 % 18 km/h (27 km/h) 0 mm0 mm 23.2 °C 23.4 °C 6 min 153.9 W/m²
09:30 24.2 °C 11.5 °C 45 % 18 km/h (27 km/h) 0 mm0 mm 23.2 °C 23.5 °C 6 min 135.9 W/m²
09:24 24 °C 11.3 °C 45 % 16 km/h (24 km/h) 0 mm0 mm 23.2 °C 23.5 °C 6 min 139.1 W/m²
09:18 24.1 °C 11.8 °C 46 % 15 km/h (24 km/h) 0 mm0 mm 23.2 °C 23.5 °C 6 min 132.9 W/m²
09:12 24 °C 12.3 °C 48 % 16 km/h (23 km/h) 0 mm0 mm 23.2 °C 23.5 °C 6 min 128.3 W/m²
09:06 23.8 °C 11.8 °C 47 % 16 km/h (23 km/h) 0 mm0 mm 23.2 °C 23.5 °C 6 min 123.7 W/m²
09:00 23.7 °C 12 °C 48 % 17 km/h (24 km/h) 0 mm0 mm 23.2 °C 23.5 °C 6 min 116.6 W/m²
08:54 23.7 °C 11.7 °C 47 % 15 km/h (22 km/h) 0 mm0 mm 23.3 °C 23.5 °C 6 min 105.6 W/m²
08:48 23.6 °C 11.6 °C 47 % 13 km/h (21 km/h) 0 mm0 mm 23.3 °C 23.5 °C 6 min 98.9 W/m²
08:42 23.4 °C 11.4 °C 47 % 15 km/h (23 km/h) 0 mm0 mm 23.3 °C 23.5 °C 6 min 79.8 W/m²
08:36 23.3 °C 11.4 °C 47 % 18 km/h (30 km/h) 0 mm0 mm 23.3 °C 23.5 °C 6 min 71.7 W/m²
08:30 23.4 °C 11.4 °C 47 % 19 km/h (30 km/h) 0 mm0 mm 23.3 °C 23.6 °C 6 min 72.1 W/m²
08:24 23.2 °C 11.3 °C 47 % 15 km/h (23 km/h) 0 mm0 mm 23.3 °C 23.6 °C 6 min 70.4 W/m²
08:18 23 °C 11.4 °C 48 % 15 km/h (27 km/h) 0 mm0 mm 23.3 °C 23.6 °C 6 min 56.2 W/m²
08:12 22.8 °C 11.5 °C 49 % 13 km/h (27 km/h) 0 mm0 mm 23.4 °C 23.6 °C 6 min 60.9 W/m²
08:06 22.4 °C 11.5 °C 50 % 12 km/h (19 km/h) 0 mm0 mm 23.4 °C 23.6 °C 6 min 51.2 W/m²
08:00 22.1 °C 11.5 °C 51 % 13 km/h (20 km/h) 0 mm0 mm 23.4 °C 23.6 °C 6 min 41.7 W/m²
07:54 21.6 °C 11.9 °C 54 % 12 km/h (20 km/h) 0 mm0 mm 23.4 °C 23.6 °C 6 min 39.5 W/m²
07:48 21 °C 12.2 °C 57 % 11 km/h (19 km/h) 0 mm0 mm 23.4 °C 23.6 °C 6 min 36.7 W/m²
07:42 21 °C 12.2 °C 57 % 10 km/h (19 km/h) 0 mm0 mm 23.4 °C 23.6 °C 6 min 30.5 W/m²
07:36 21 °C 11.9 °C 56 % 10 km/h (19 km/h) 0 mm0 mm 23.4 °C 23.6 °C 6 min 17.1 W/m²
07:30 20.3 °C 12.3 °C 60 % 12 km/h (18 km/h) 0 mm0 mm 23.4 °C 23.6 °C 1 min 7.7 W/m²
07:24 21.3 °C 12.2 °C 56 % 11 km/h (18 km/h) 0 mm0 mm 23.5 °C 23.6 °C 0 min 3.4 W/m²
07:18 20.2 °C 12.2 °C 60 % 9 km/h (16 km/h) 0 mm0 mm 23.5 °C 23.7 °C 0 min 0 W/m²
07:12 19.2 °C 13.1 °C 68 % 10 km/h (14 km/h) 0 mm0 mm 23.5 °C 23.7 °C 0 min 0 W/m²
07:06 19.5 °C 13 °C 66 % 11 km/h (17 km/h) 0 mm0 mm 23.5 °C 23.7 °C 0 min 0 W/m²
07:00 20.6 °C 12.6 °C 60 % 13 km/h (25 km/h) 0 mm0 mm 23.6 °C 23.7 °C 0 min 0 W/m²
06:54 21.9 °C 12.2 °C 54 % 14 km/h (25 km/h) 0 mm0 mm 23.6 °C 23.7 °C 0 min 0 W/m²
06:48 21.7 °C 12 °C 54 % 13 km/h (22 km/h) 0 mm0 mm 23.6 °C 23.7 °C 0 min 0 W/m²
06:42 21.6 °C 12.2 °C 55 % 12 km/h (20 km/h) 0 mm0 mm 23.6 °C 23.7 °C 0 min 0 W/m²
06:36 21.4 °C 12.3 °C 56 % 10 km/h (18 km/h) 0 mm0 mm 23.6 °C 23.7 °C 0 min 0 W/m²
06:30 20.2 °C 12.4 °C 61 % 8 km/h (18 km/h) 0 mm0 mm 23.6 °C 23.7 °C 0 min 0 W/m²
06:24 20.4 °C 12.9 °C 62 % 8 km/h (14 km/h) 0 mm0 mm 23.6 °C 23.7 °C 0 min 0 W/m²
06:18 21.6 °C 12.7 °C 57 % 11 km/h (18 km/h) 0 mm0 mm 23.7 °C 23.7 °C 0 min 0 W/m²
06:12 22.5 °C 12.1 °C 52 % 14 km/h (22 km/h) 0 mm0 mm 23.7 °C 23.7 °C 0 min 0 W/m²
06:06 22.7 °C 12.3 °C 52 % 15 km/h (23 km/h) 0 mm0 mm 23.7 °C 23.7 °C 0 min 0 W/m²
06:00 22.9 °C 12.5 °C 52 % 15 km/h (23 km/h) 0 mm0 mm 23.7 °C 23.8 °C 0 min 0 W/m²
05:54 22.8 °C 12.7 °C 53 % 16 km/h (23 km/h) 0 mm0 mm 23.7 °C 23.8 °C 0 min 0 W/m²
05:48 22.6 °C 12.8 °C 54 % 16 km/h (24 km/h) 0 mm0 mm 23.7 °C 23.8 °C 0 min 0 W/m²
05:42 22 °C 13.1 °C 57 % 16 km/h (24 km/h) 0 mm0 mm 23.8 °C 23.8 °C 0 min 0 W/m²
05:36 21 °C 13.9 °C 64 % 14 km/h (24 km/h) 0 mm0 mm 23.8 °C 23.8 °C 0 min 0 W/m²
05:30 17.9 °C 14.6 °C 81 % 8 km/h (18 km/h) 0 mm0 mm 23.8 °C 23.8 °C 0 min 0 W/m²
05:24 16.8 °C 14.8 °C 88 % 4 km/h (10 km/h) 0 mm0 mm 23.8 °C 23.8 °C 0 min 0 W/m²
05:18 16.5 °C 14.1 °C 86 % 0 km/h (6 km/h) 0 mm0 mm 23.8 °C 23.8 °C 0 min 0 W/m²
05:12 16.7 °C 14.2 °C 85 % 0 km/h (3 km/h) 0 mm0 mm 23.8 °C 23.8 °C 0 min 0 W/m²
05:06 17 °C 14.5 °C 85 % 0 km/h (2 km/h) 0 mm0 mm 23.9 °C 23.8 °C 0 min 0 W/m²
05:00 17.5 °C 14.8 °C 84 % 0 km/h (2 km/h) 0 mm0 mm 23.9 °C 23.8 °C 0 min 0 W/m²
04:54 17.7 °C 15.1 °C 85 % 0 km/h (2 km/h) 0 mm0 mm 23.9 °C 23.8 °C 0 min 0 W/m²
04:48 17.7 °C 15 °C 84 % 0 km/h (3 km/h) 0 mm0 mm 23.9 °C 23.8 °C 0 min 0 W/m²
04:42 17.9 °C 14.8 °C 82 % 2 km/h (4 km/h) 0 mm0 mm 23.9 °C 23.8 °C 0 min 0 W/m²
04:36 18.5 °C 15.4 °C 82 % 4 km/h (7 km/h) 0 mm0 mm 23.9 °C 23.8 °C 0 min 0 W/m²
04:30 18.5 °C 15.6 °C 83 % 5 km/h (7 km/h) 0 mm0 mm 23.9 °C 23.8 °C 0 min 0 W/m²
04:24 17.7 °C 15.3 °C 86 % 4 km/h (6 km/h) 0 mm0 mm 24 °C 23.8 °C 0 min 0 W/m²
04:18 17.5 °C 14.9 °C 85 % 5 km/h (8 km/h) 0 mm0 mm 24 °C 23.9 °C 0 min 0 W/m²
04:12 17.6 °C 14.9 °C 84 % 4 km/h (8 km/h) 0 mm0 mm 24 °C 23.9 °C 0 min 0 W/m²
04:06 17.7 °C 14.8 °C 83 % 3 km/h (5 km/h) 0 mm0 mm 24 °C 23.9 °C 0 min 0 W/m²
04:00 18.1 °C 15 °C 82 % 3 km/h (5 km/h) 0 mm0 mm 24 °C 23.9 °C 0 min 0 W/m²
03:54 18.4 °C 14.9 °C 80 % 3 km/h (8 km/h) 0 mm0 mm 24 °C 23.9 °C 0 min 0 W/m²
03:48 18.7 °C 15.4 °C 81 % 7 km/h (10 km/h) 0 mm0 mm 24 °C 23.9 °C 0 min 0 W/m²
03:42 18.8 °C 15.1 °C 79 % 10 km/h (12 km/h) 0 mm0 mm 24.1 °C 23.9 °C 0 min 0 W/m²
03:36 18.9 °C 15 °C 78 % 9 km/h (12 km/h) 0 mm0 mm 24.1 °C 23.9 °C 0 min 0 W/m²
03:30 18.7 °C 14.8 °C 78 % 7 km/h (10 km/h) 0 mm0 mm 24.1 °C 23.9 °C 0 min 0 W/m²
03:24 18.6 °C 14.3 °C 76 % 4 km/h (10 km/h) 0 mm0 mm 24.1 °C 23.9 °C 0 min 0 W/m²
03:18 18.9 °C 14.8 °C 77 % 0 km/h (4 km/h) 0 mm0 mm 24.1 °C 23.9 °C 0 min 0 W/m²
03:12 19.3 °C 14.5 °C 74 % 2 km/h (4 km/h) 0 mm0 mm 24.1 °C 23.9 °C 0 min 0 W/m²
03:06 19.4 °C 14.6 °C 74 % 4 km/h (6 km/h) 0 mm0 mm 24.2 °C 23.9 °C 0 min 0 W/m²
03:00 19.7 °C 14.7 °C 73 % 5 km/h (6 km/h) 0 mm0 mm 24.2 °C 23.9 °C 0 min 0 W/m²
02:54 20.1 °C 14.9 °C 72 % 4 km/h (6 km/h) 0 mm0 mm 24.2 °C 23.9 °C 0 min 0 W/m²
02:48 20.2 °C 15 °C 72 % 4 km/h (6 km/h) 0 mm0 mm 24.2 °C 23.9 °C 0 min 0 W/m²
02:42 20.3 °C 15.1 °C 72 % 5 km/h (9 km/h) 0 mm0 mm 24.2 °C 23.9 °C 0 min 0 W/m²
02:36 21 °C 15.1 °C 69 % 5 km/h (9 km/h) 0 mm0 mm 24.2 °C 23.9 °C 0 min 0 W/m²
02:30 20.2 °C 15.2 °C 73 % 3 km/h (7 km/h) 0 mm0 mm 24.2 °C 23.9 °C 0 min 0 W/m²
02:24 20.5 °C 15.3 °C 72 % 3 km/h (7 km/h) 0 mm0 mm 24.3 °C 23.9 °C 0 min 0 W/m²
02:18 20.5 °C 15.1 °C 71 % 3 km/h (6 km/h) 0 mm0 mm 24.3 °C 23.9 °C 0 min 0 W/m²
02:12 21.2 °C 15.5 °C 70 % 3 km/h (5 km/h) 0 mm0 mm 24.3 °C 23.9 °C 0 min 0 W/m²
02:06 20.9 °C 15.2 °C 70 % 2 km/h (4 km/h) 0 mm0 mm 24.3 °C 23.9 °C 0 min 0 W/m²
02:00 21.4 °C 15.7 °C 70 % 2 km/h (4 km/h) 0 mm0 mm 24.3 °C 23.9 °C 0 min 0 W/m²
01:54 21.1 °C 15 °C 68 % 2 km/h (3 km/h) 0 mm0 mm 24.3 °C 23.9 °C 0 min 0 W/m²
01:48 21.1 °C 15.2 °C 69 % 0 km/h (3 km/h) 0 mm0 mm 24.3 °C 23.9 °C 0 min 0 W/m²
01:42 21.1 °C 15.6 °C 71 % 0 km/h (3 km/h) 0 mm0 mm 24.3 °C 23.9 °C 0 min 0 W/m²
01:36 21.2 °C 15.7 °C 71 % 2 km/h (5 km/h) 0 mm0 mm 24.4 °C 23.9 °C 0 min 0 W/m²
01:30 21.6 °C 15.4 °C 68 % 2 km/h (5 km/h) 0 mm0 mm 24.4 °C 24 °C 0 min 0 W/m²
01:24 21.6 °C 15.4 °C 68 % 0 km/h (5 km/h) 0 mm0 mm 24.4 °C 24 °C 0 min 0 W/m²
01:18 22.6 °C 15.9 °C 66 % 0 km/h (5 km/h) 0 mm0 mm 24.4 °C 23.9 °C 0 min 0 W/m²
01:12 23 °C 16.1 °C 65 % 3 km/h (5 km/h) 0 mm0 mm 24.4 °C 24 °C 0 min 0 W/m²
01:06 22.9 °C 16 °C 65 % 4 km/h (6 km/h) 0 mm0 mm 24.5 °C 24 °C 0 min 0 W/m²
01:00 22.6 °C 15.9 °C 66 % 5 km/h (8 km/h) 0 mm0 mm 24.5 °C 24 °C 0 min 0 W/m²
00:54 22.5 °C 15.8 °C 66 % 4 km/h (8 km/h) 0 mm0 mm 24.5 °C 24 °C 0 min 0 W/m²
00:48 22.5 °C 15.8 °C 66 % 3 km/h (5 km/h) 0 mm0 mm 24.5 °C 24 °C 0 min 0 W/m²
00:42 22.6 °C 15.9 °C 66 % 3 km/h (6 km/h) 0 mm0 mm 24.5 °C 24 °C 0 min 0 W/m²
00:36 22.7 °C 15.8 °C 65 % 2 km/h (6 km/h) 0 mm0 mm 24.5 °C 23.9 °C 0 min 0 W/m²
00:30 22.5 °C 15.8 °C 66 % 2 km/h (5 km/h) 0 mm0 mm 24.5 °C 24 °C 0 min 0 W/m²
00:24 23 °C 15.8 °C 64 % 0 km/h (4 km/h) 0 mm0 mm 24.5 °C 23.9 °C 0 min 0 W/m²
00:18 23.4 °C 16.2 °C 64 % 2 km/h (4 km/h) 0 mm0 mm 24.5 °C 23.9 °C 0 min 0 W/m²
00:12 23.3 °C 15.9 °C 63 % 2 km/h (4 km/h) 0 mm0 mm 24.5 °C 23.9 °C 0 min 0 W/m²
00:06 23.9 °C 16.2 °C 62 % 2 km/h (4 km/h) 0 mm0 mm 24.6 °C 23.9 °C 0 min 0 W/m²
00:00 24.2 °C 16.5 °C 62 % 2 km/h (4 km/h) 0 mm0 mm 24.6 °C 23.9 °C 0 min 0 W/m²

Données via Météo-France

Relevés météo à Etoile

Cette page rassemble les observations de la station de Etoile : température, humidité, vent, précipitations et pression atmosphérique. Les graphiques facilitent le suivi de la journée, tandis que le tableau donne accès aux mesures horaires et infra-horaires disponibles.

Pour replacer ces mesures dans leur contexte, consultez la climatologie de Etoile ainsi que ses normales et records. Retrouvez aussi la carte des observations météo en temps réel.